createdAt,value
2018-03-03T00:01:06.604Z,21.83
2018-03-03T00:03:34.973Z,24.83
2018-03-03T00:06:03.323Z,24.90
2018-03-03T00:08:31.667Z,24.27
2018-03-03T00:11:00.010Z,23.97
2018-03-03T00:13:28.436Z,22.87
2018-03-03T00:15:56.775Z,23.50
2018-03-03T00:18:25.871Z,25.43
2018-03-03T00:20:54.188Z,24.47
2018-03-03T00:23:22.603Z,24.90
2018-03-03T00:25:50.920Z,25.17
2018-03-03T00:28:19.253Z,24.80
2018-03-03T00:30:47.673Z,25.10
2018-03-03T00:33:16.059Z,23.17
2018-03-03T00:35:44.462Z,25.20
2018-03-03T00:38:12.763Z,25.30
2018-03-03T00:40:41.084Z,23.07
2018-03-03T00:43:10.227Z,23.40
2018-03-03T00:45:38.527Z,26.00
2018-03-03T00:48:06.861Z,26.10
2018-03-03T00:50:35.169Z,25.30
2018-03-03T00:53:04.256Z,23.60
2018-03-03T00:55:32.637Z,25.43
2018-03-03T00:58:00.965Z,24.73
2018-03-03T01:00:30.063Z,26.20
2018-03-03T01:02:58.384Z,23.93
2018-03-03T01:05:26.714Z,24.13
2018-03-03T01:07:55.065Z,26.43
2018-03-03T01:10:23.397Z,25.93
2018-03-03T01:12:51.928Z,23.80
2018-03-03T01:15:20.255Z,26.03
2018-03-03T01:17:48.607Z,23.90
2018-03-03T01:20:16.932Z,24.50
2018-03-03T01:22:45.261Z,26.57
2018-03-03T01:25:13.643Z,26.93
2018-03-03T01:27:42.019Z,25.37
2018-03-03T01:30:10.327Z,26.70
2018-03-03T01:32:38.658Z,24.87
2018-03-03T01:35:06.967Z,23.77
2018-03-03T01:37:35.313Z,23.87
2018-03-03T01:40:03.610Z,25.60
2018-03-03T01:42:31.923Z,25.77
2018-03-03T01:45:00.999Z,25.50
2018-03-03T01:47:29.378Z,20.73
2018-03-03T01:49:57.676Z,23.97
2018-03-03T01:52:25.994Z,25.10
2018-03-03T01:54:54.325Z,25.23
2018-03-03T01:57:22.682Z,24.87
2018-03-03T01:59:51.780Z,26.20
2018-03-03T02:02:20.094Z,24.70
2018-03-03T02:04:49.236Z,25.73
2018-03-03T02:07:17.551Z,25.13
2018-03-03T02:09:45.977Z,25.87
2018-03-03T02:12:14.340Z,26.30
2018-03-03T02:14:42.758Z,26.03
2018-03-03T02:17:11.877Z,26.63
2018-03-03T02:19:40.975Z,24.83
2018-03-03T02:22:10.071Z,25.23
2018-03-03T02:24:39.158Z,28.90
2018-03-03T02:27:07.499Z,25.10
2018-03-03T02:29:35.804Z,25.83
2018-03-03T02:32:04.175Z,25.57
2018-03-03T02:34:33.255Z,27.20
2018-03-03T02:37:01.575Z,28.67
2018-03-03T02:39:30.689Z,26.70
2018-03-03T02:41:59.034Z,27.07
2018-03-03T02:44:27.403Z,27.17
2018-03-03T02:46:55.816Z,30.27
2018-03-03T02:49:24.163Z,28.20
2018-03-03T02:51:52.501Z,28.20
2018-03-03T02:54:20.840Z,30.20
2018-03-03T02:56:50.061Z,31.37
2018-03-03T02:59:18.431Z,29.63
2018-03-03T03:01:46.761Z,28.60
2018-03-03T03:04:15.078Z,32.30
2018-03-03T03:06:43.436Z,30.73
2018-03-03T03:09:11.817Z,28.23
2018-03-03T03:11:40.132Z,30.80
2018-03-03T03:14:08.438Z,28.77
2018-03-03T03:16:36.757Z,27.63
2018-03-03T03:19:05.053Z,29.57
2018-03-03T03:21:34.131Z,29.47
2018-03-03T03:24:02.433Z,29.70
2018-03-03T03:26:30.797Z,26.50
2018-03-03T03:28:59.117Z,29.10
2018-03-03T03:31:27.426Z,26.40
2018-03-03T03:33:56.497Z,29.23
2018-03-03T03:36:24.875Z,30.33
2018-03-03T03:38:53.224Z,31.27
2018-03-03T03:41:22.309Z,29.27
2018-03-03T03:43:50.694Z,27.30
2018-03-03T03:46:19.000Z,27.77
2018-03-03T03:48:47.344Z,27.87
2018-03-03T03:51:15.669Z,27.80
2018-03-03T03:53:44.005Z,28.37
2018-03-03T03:56:12.404Z,30.17
2018-03-03T03:58:40.842Z,34.30
2018-03-03T04:01:09.160Z,27.97
2018-03-03T04:03:37.484Z,29.47
2018-03-03T04:06:05.841Z,28.57
2018-03-03T04:08:34.919Z,29.50
2018-03-03T04:11:03.221Z,29.60
2018-03-03T04:13:31.534Z,29.43
2018-03-03T04:16:00.598Z,29.00
2018-03-03T04:18:29.059Z,29.20
2018-03-03T04:20:57.382Z,28.43
2018-03-03T04:23:25.698Z,27.50
2018-03-03T04:25:54.052Z,28.20
2018-03-03T04:28:22.383Z,29.53
2018-03-03T04:30:50.730Z,27.93
2018-03-03T04:33:19.036Z,27.50
2018-03-03T04:35:47.439Z,32.17
2018-03-03T04:38:16.584Z,29.07
2018-03-03T04:40:45.684Z,27.70
2018-03-03T04:43:14.065Z,32.43
2018-03-03T04:45:42.426Z,28.10
2018-03-03T04:48:11.573Z,30.50
2018-03-03T04:50:39.912Z,32.27
2018-03-03T04:53:08.218Z,28.73
2018-03-03T04:55:36.516Z,30.00
2018-03-03T04:58:04.831Z,28.07
2018-03-03T05:00:45.829Z,27.30
2018-03-03T05:03:17.172Z,29.30
2018-03-03T05:05:51.147Z,29.10
2018-03-03T05:08:38.231Z,27.47
2018-03-03T05:11:21.426Z,27.60
2018-03-03T05:17:12.624Z,28.97
2018-03-03T05:19:46.762Z,28.37
2018-03-03T05:22:21.087Z,30.60
2018-03-03T05:24:57.114Z,27.57
2018-03-03T05:30:45.155Z,32.00
2018-03-03T05:33:16.417Z,31.10
2018-03-03T05:35:49.613Z,29.10
2018-03-03T05:38:23.784Z,30.27
2018-03-03T05:41:12.756Z,29.60
2018-03-03T05:43:47.756Z,29.83
2018-03-03T05:46:21.767Z,27.77
2018-03-03T05:52:13.760Z,30.97
2018-03-03T05:54:47.973Z,28.00
2018-03-03T06:00:21.025Z,26.93
2018-03-03T06:05:52.169Z,30.37
2018-03-03T06:08:26.181Z,25.63
2018-03-03T06:10:56.296Z,29.67
2018-03-03T06:13:24.660Z,30.43
2018-03-03T06:15:53.832Z,31.30
2018-03-03T06:18:22.992Z,29.77
2018-03-03T06:20:51.344Z,30.37
2018-03-03T06:23:20.337Z,31.67
2018-03-03T06:25:48.699Z,30.53
2018-03-03T06:28:17.934Z,31.40
2018-03-03T06:30:46.323Z,32.57
2018-03-03T06:33:14.691Z,31.00
2018-03-03T06:35:43.083Z,32.10
2018-03-03T06:38:11.444Z,30.83
2018-03-03T06:40:39.829Z,29.50
2018-03-03T06:43:08.196Z,29.20
2018-03-03T06:45:36.560Z,30.70
2018-03-03T06:48:04.977Z,29.10
2018-03-03T06:50:34.149Z,29.20
2018-03-03T06:53:02.609Z,29.37
2018-03-03T06:55:30.974Z,29.30
2018-03-03T06:58:00.123Z,28.80
2018-03-03T07:00:28.489Z,31.70
2018-03-03T07:02:57.597Z,30.90
2018-03-03T07:05:26.802Z,28.57
2018-03-03T07:07:55.325Z,28.70
2018-03-03T07:10:23.677Z,29.53
2018-03-03T07:12:52.806Z,27.33
2018-03-03T07:15:23.645Z,29.07
2018-03-03T07:17:52.855Z,29.13
2018-03-03T07:20:22.922Z,29.50
2018-03-03T07:22:51.300Z,29.40
2018-03-03T07:25:19.732Z,31.50
2018-03-03T07:27:48.116Z,29.30
2018-03-03T07:30:16.478Z,28.80
2018-03-03T07:32:44.846Z,31.37
2018-03-03T07:35:13.220Z,28.30
2018-03-03T07:37:41.701Z,27.30
2018-03-03T07:40:10.136Z,26.10
2018-03-03T07:42:38.481Z,28.87
2018-03-03T07:45:06.838Z,30.10
2018-03-03T07:47:35.202Z,31.33
2018-03-03T07:50:03.717Z,26.13
2018-03-03T07:52:32.075Z,29.00
2018-03-03T07:55:00.431Z,28.90
2018-03-03T07:57:28.888Z,30.47
2018-03-03T07:59:57.298Z,31.07
2018-03-03T08:02:25.703Z,31.07
2018-03-03T08:04:54.057Z,29.20
2018-03-03T08:07:22.540Z,29.60
2018-03-03T08:09:50.897Z,29.23
2018-03-03T08:12:20.250Z,28.80
2018-03-03T08:14:48.697Z,29.17
2018-03-03T08:17:17.826Z,28.90
2018-03-03T08:19:46.179Z,31.23
2018-03-03T08:22:15.326Z,28.20
2018-03-03T08:24:43.680Z,28.90
2018-03-03T08:27:12.864Z,30.60
2018-03-03T08:29:41.310Z,30.93
2018-03-03T08:32:10.111Z,29.40
2018-03-03T08:34:39.313Z,31.33
2018-03-03T08:37:07.692Z,28.50
2018-03-03T08:39:36.878Z,30.60
2018-03-03T08:42:05.272Z,29.50
2018-03-03T08:44:33.617Z,29.80
2018-03-03T08:47:02.190Z,30.10
2018-03-03T08:49:30.552Z,31.10
2018-03-03T08:51:59.714Z,31.50
2018-03-03T08:54:28.108Z,32.00
2018-03-03T08:56:56.575Z,30.50
2018-03-03T08:59:24.918Z,31.23
2018-03-03T09:01:53.318Z,28.50
2018-03-03T09:04:22.507Z,31.10
2018-03-03T09:06:50.908Z,28.27
2018-03-03T09:09:19.262Z,30.17
2018-03-03T09:11:48.121Z,31.13
2018-03-03T09:14:17.495Z,32.50
2018-03-03T09:16:46.219Z,32.00
2018-03-03T09:19:14.719Z,27.00
2018-03-03T09:21:43.102Z,29.17
2018-03-03T09:24:12.243Z,31.27
2018-03-03T09:26:40.621Z,30.77
2018-03-03T09:29:09.074Z,31.47
2018-03-03T09:31:37.445Z,32.20
2018-03-03T09:34:06.587Z,33.43
2018-03-03T09:36:34.924Z,32.17
2018-03-03T09:39:03.478Z,31.53
2018-03-03T09:41:31.925Z,32.27
2018-03-03T09:44:00.320Z,33.23
2018-03-03T09:46:28.673Z,32.47
2018-03-03T09:48:57.031Z,32.07
2018-03-03T09:51:25.391Z,32.20
2018-03-03T09:53:53.800Z,29.57
2018-03-03T09:56:23.128Z,30.90
2018-03-03T09:58:51.509Z,31.27
2018-03-03T10:01:19.998Z,31.47
2018-03-03T10:03:49.160Z,32.07
2018-03-03T10:06:17.572Z,31.27
2018-03-03T10:08:45.923Z,32.50
2018-03-03T10:11:14.292Z,34.97
2018-03-03T10:13:43.391Z,31.73
2018-03-03T10:16:11.817Z,33.33
2018-03-03T10:18:40.269Z,33.27
2018-03-03T10:21:08.660Z,34.13
2018-03-03T10:23:37.098Z,33.67
2018-03-03T10:26:05.598Z,34.33
2018-03-03T10:28:35.111Z,32.00
2018-03-03T10:31:03.583Z,34.07
2018-03-03T10:33:31.961Z,33.17
2018-03-03T10:36:00.437Z,36.13
2018-03-03T10:38:30.558Z,30.97
2018-03-03T10:40:58.914Z,34.40
2018-03-03T10:43:27.351Z,30.30
2018-03-03T10:45:56.544Z,31.60
2018-03-03T10:48:24.891Z,33.87
2018-03-03T10:50:53.250Z,30.83
2018-03-03T10:53:21.677Z,32.10
2018-03-03T10:55:50.430Z,33.50
2018-03-03T10:58:19.610Z,34.70
2018-03-03T11:00:50.726Z,30.43
2018-03-03T11:03:19.185Z,35.00
2018-03-03T11:05:47.671Z,33.87
2018-03-03T11:08:16.874Z,33.30
2018-03-03T11:10:45.970Z,33.13
2018-03-03T11:13:14.351Z,31.60
2018-03-03T11:15:42.712Z,33.43
2018-03-03T11:18:11.051Z,31.40
2018-03-03T11:20:39.362Z,33.90
2018-03-03T11:23:08.452Z,34.70
2018-03-03T11:25:37.672Z,33.07
2018-03-03T11:28:06.114Z,30.73
2018-03-03T11:30:34.463Z,30.87
2018-03-03T11:33:03.644Z,31.27
2018-03-03T11:35:32.007Z,33.47
2018-03-03T11:38:00.380Z,31.10
2018-03-03T11:40:33.134Z,29.70
2018-03-03T11:42:57.961Z,31.40
2018-03-03T11:45:26.298Z,31.37
2018-03-03T11:47:54.802Z,31.90
2018-03-03T11:50:23.958Z,34.33
2018-03-03T11:52:52.380Z,34.47
2018-03-03T11:55:20.803Z,32.53
2018-03-03T11:57:49.143Z,32.40
2018-03-03T12:00:17.526Z,35.37
2018-03-03T12:02:46.619Z,33.80
2018-03-03T12:05:14.929Z,30.80
2018-03-03T12:07:44.211Z,32.80
2018-03-03T12:10:13.312Z,31.83
2018-03-03T12:12:42.374Z,33.47
2018-03-03T12:15:10.705Z,30.87
2018-03-03T12:17:39.792Z,31.50
2018-03-03T12:20:08.154Z,31.00
2018-03-03T12:22:36.484Z,32.40
2018-03-03T12:25:04.800Z,31.27
2018-03-03T12:27:33.112Z,32.47
2018-03-03T12:30:01.557Z,33.93
2018-03-03T12:32:29.877Z,30.50
2018-03-03T12:34:58.243Z,31.93
2018-03-03T12:37:28.265Z,32.37
2018-03-03T12:39:56.595Z,33.13
2018-03-03T12:42:24.973Z,34.80
2018-03-03T12:44:53.353Z,32.20
2018-03-03T12:47:21.766Z,34.13
2018-03-03T12:49:50.235Z,32.00
2018-03-03T12:52:18.776Z,33.53
2018-03-03T12:54:47.192Z,36.37
2018-03-03T12:57:15.695Z,36.70
2018-03-03T12:59:44.118Z,33.20
2018-03-03T13:02:12.577Z,33.07
2018-03-03T13:04:40.965Z,33.03
2018-03-03T13:07:09.322Z,33.30
2018-03-03T13:09:37.702Z,32.00
2018-03-03T13:12:06.237Z,31.10
2018-03-03T13:14:34.733Z,33.17
2018-03-03T13:17:03.090Z,34.60
2018-03-03T13:19:31.830Z,34.07
2018-03-03T13:22:00.955Z,32.80
2018-03-03T13:24:29.418Z,31.97
2018-03-03T13:26:57.796Z,33.03
2018-03-03T13:29:26.138Z,30.70
2018-03-03T13:31:54.529Z,33.83
2018-03-03T13:34:22.943Z,32.50
2018-03-03T13:36:51.494Z,30.60
2018-03-03T13:39:19.912Z,33.63
2018-03-03T13:41:48.406Z,30.80
2018-03-03T13:44:16.773Z,32.10
2018-03-03T13:46:45.132Z,33.13
2018-03-03T13:49:13.587Z,32.40
2018-03-03T13:51:42.003Z,35.13
2018-03-03T13:54:10.356Z,33.57
2018-03-03T13:56:39.074Z,31.97
2018-03-03T13:59:08.156Z,30.50
2018-03-03T14:01:36.457Z,29.37
2018-03-03T14:04:05.569Z,33.27
2018-03-03T14:06:34.655Z,30.30
2018-03-03T14:09:03.769Z,34.90
2018-03-03T14:11:32.080Z,33.60
2018-03-03T14:14:01.193Z,34.40
2018-03-03T14:16:30.339Z,34.50
2018-03-03T14:18:58.670Z,32.60
2018-03-03T14:21:27.870Z,31.37
2018-03-03T14:23:56.981Z,30.80
2018-03-03T14:26:25.322Z,31.80
2018-03-03T14:28:53.742Z,33.97
2018-03-03T14:31:22.101Z,36.73
2018-03-03T14:33:50.425Z,33.80
2018-03-03T14:36:18.790Z,32.53
2018-03-03T14:38:47.102Z,30.90
2018-03-03T14:41:15.490Z,34.80
2018-03-03T14:43:43.821Z,34.87
2018-03-03T14:46:13.020Z,33.23
2018-03-03T14:48:42.183Z,36.20
2018-03-03T14:51:10.498Z,34.97
2018-03-03T14:53:38.894Z,32.47
2018-03-03T14:56:07.238Z,35.77
2018-03-03T14:58:35.599Z,33.03
2018-03-03T15:01:04.784Z,32.33
2018-03-03T15:03:33.144Z,34.37
2018-03-03T15:06:02.304Z,33.40
2018-03-03T15:08:31.390Z,36.37
2018-03-03T15:10:59.702Z,36.20
2018-03-03T15:13:28.790Z,31.67
2018-03-03T15:15:57.113Z,36.17
2018-03-03T15:18:25.509Z,34.30
2018-03-03T15:20:54.034Z,36.40
2018-03-03T15:23:22.362Z,34.67
2018-03-03T15:25:50.688Z,36.07
2018-03-03T15:28:19.039Z,33.10
2018-03-03T15:30:47.523Z,33.53
2018-03-03T15:33:15.863Z,36.20
2018-03-03T15:35:44.184Z,36.27
2018-03-03T15:38:12.574Z,34.97
2018-03-03T15:40:40.961Z,35.27
2018-03-03T15:43:09.398Z,33.40
2018-03-03T15:45:37.734Z,36.90
2018-03-03T15:48:06.817Z,37.03
2018-03-03T15:50:35.275Z,34.03
2018-03-03T15:53:04.406Z,37.00
2018-03-03T15:55:32.900Z,39.77
2018-03-03T15:58:02.160Z,40.47
2018-03-03T16:00:31.282Z,38.03
2018-03-03T16:02:59.614Z,39.93
2018-03-03T16:05:28.001Z,37.90
2018-03-03T16:07:56.442Z,37.50
2018-03-03T16:10:24.797Z,36.37
2018-03-03T16:12:53.122Z,37.17
2018-03-03T16:15:21.536Z,38.97
2018-03-03T16:17:49.875Z,37.23
2018-03-03T16:20:19.310Z,37.33
2018-03-03T16:22:47.630Z,33.20
2018-03-03T16:25:15.951Z,39.27
2018-03-03T16:27:44.312Z,37.90
2018-03-03T16:30:12.633Z,40.70
2018-03-03T16:32:41.162Z,39.13
2018-03-03T16:35:09.491Z,36.40
2018-03-03T16:37:37.803Z,39.60
2018-03-03T16:40:06.126Z,45.87
2018-03-03T16:42:34.454Z,39.73
2018-03-03T16:45:02.906Z,40.47
2018-03-03T16:47:31.242Z,39.53
2018-03-03T16:49:59.643Z,39.10
2018-03-03T16:52:28.759Z,39.53
2018-03-03T16:54:57.914Z,40.07
2018-03-03T16:57:26.274Z,40.03
2018-03-03T16:59:54.603Z,41.17
2018-03-03T17:02:22.928Z,40.37
2018-03-03T17:04:52.045Z,41.37
2018-03-03T17:07:20.647Z,41.17
2018-03-03T17:09:49.003Z,39.80
2018-03-03T17:12:17.323Z,43.23
2018-03-03T17:14:45.717Z,44.20
2018-03-03T17:17:14.043Z,39.00
2018-03-03T17:19:42.543Z,42.10
2018-03-03T17:22:10.984Z,41.40
2018-03-03T17:24:39.325Z,39.77
2018-03-03T17:27:08.432Z,39.87
2018-03-03T17:29:37.506Z,40.60
2018-03-03T17:32:06.239Z,40.60
2018-03-03T17:34:34.565Z,45.37
2018-03-03T17:37:02.899Z,42.90
2018-03-03T17:39:31.987Z,41.73
2018-03-03T17:42:00.318Z,45.77
2018-03-03T17:44:28.695Z,39.53
2018-03-03T17:46:57.801Z,42.53
2018-03-03T17:49:26.920Z,38.93
2018-03-03T17:51:55.227Z,40.83
2018-03-03T17:54:23.547Z,41.87
2018-03-03T17:56:51.975Z,39.67
2018-03-03T17:59:21.050Z,42.63
2018-03-03T18:01:49.392Z,42.07
2018-03-03T18:04:17.733Z,37.30
2018-03-03T18:06:46.163Z,42.80
2018-03-03T18:09:14.571Z,43.50
2018-03-03T18:11:48.852Z,40.60
2018-03-03T18:14:17.307Z,42.00
2018-03-03T18:16:45.639Z,38.10
2018-03-03T18:19:13.989Z,41.77
2018-03-03T18:21:42.341Z,41.60
2018-03-03T18:27:11.407Z,45.50
2018-03-03T18:29:39.829Z,37.27
2018-03-03T18:32:09.010Z,41.47
2018-03-03T18:34:37.343Z,40.60
2018-03-03T18:37:05.706Z,42.53
2018-03-03T18:39:34.091Z,45.53
2018-03-03T18:42:02.464Z,44.80
2018-03-03T18:44:30.877Z,42.23
2018-03-03T18:46:59.239Z,46.60
2018-03-03T18:49:27.686Z,42.57
2018-03-03T18:51:57.293Z,39.83
2018-03-03T18:54:26.419Z,40.60
2018-03-03T18:56:55.551Z,42.23
2018-03-03T18:59:23.992Z,43.50
2018-03-03T19:01:52.391Z,41.63
2018-03-03T19:04:21.104Z,41.27
2018-03-03T19:06:50.329Z,43.43
2018-03-03T19:09:19.515Z,43.90
2018-03-03T19:11:48.657Z,41.10
2018-03-03T19:14:17.873Z,42.67
2018-03-03T19:16:46.322Z,39.83
2018-03-03T19:19:15.114Z,40.87
2018-03-03T19:21:43.479Z,42.03
2018-03-03T19:24:11.915Z,44.83
2018-03-03T19:26:40.252Z,40.80
2018-03-03T19:29:09.530Z,41.67
2018-03-03T19:31:38.658Z,40.93
2018-03-03T19:34:07.024Z,42.87
2018-03-03T19:36:35.387Z,44.80
2018-03-03T19:39:03.793Z,44.77
2018-03-03T19:41:32.220Z,42.53
2018-03-03T19:44:01.315Z,43.43
2018-03-03T19:46:30.404Z,43.50
2018-03-03T19:48:58.758Z,41.37
2018-03-03T19:51:27.088Z,44.67
2018-03-03T19:53:57.576Z,41.10
2018-03-03T19:56:25.905Z,44.87
2018-03-03T19:58:54.274Z,44.10
2018-03-03T20:01:22.643Z,45.93
2018-03-03T20:03:51.812Z,44.03
2018-03-03T20:06:20.241Z,44.97
2018-03-03T20:08:49.494Z,42.10
2018-03-03T20:11:17.850Z,44.27
2018-03-03T20:13:46.257Z,44.40
2018-03-03T20:16:14.623Z,45.60
2018-03-03T20:18:43.897Z,47.00
2018-03-03T20:21:12.362Z,43.80
2018-03-03T20:23:40.794Z,43.20
2018-03-03T20:26:09.151Z,44.00
2018-03-03T20:28:37.494Z,45.07
2018-03-03T20:31:06.660Z,43.23
2018-03-03T20:33:35.007Z,44.17
2018-03-03T20:36:04.140Z,42.37
2018-03-03T20:38:32.484Z,44.43
2018-03-03T20:41:00.836Z,43.53
2018-03-03T20:43:29.220Z,42.80
2018-03-03T20:45:57.565Z,45.47
2018-03-03T20:48:31.137Z,41.73
2018-03-03T20:50:59.491Z,45.97
2018-03-03T20:53:28.646Z,45.57
2018-03-03T20:55:57.003Z,47.00
2018-03-03T20:58:25.387Z,40.87
2018-03-03T21:00:53.766Z,43.60
2018-03-03T21:03:22.943Z,43.80
2018-03-03T21:05:51.403Z,47.00
2018-03-03T21:08:19.800Z,45.30
2018-03-03T21:10:48.347Z,44.23
2018-03-03T21:13:16.764Z,47.80
2018-03-03T21:15:45.968Z,47.27
2018-03-03T21:18:14.383Z,45.40
2018-03-03T21:20:42.714Z,46.80
2018-03-03T21:23:11.422Z,42.10
2018-03-03T21:25:39.738Z,45.80
2018-03-03T21:28:08.905Z,47.67
2018-03-03T21:30:37.299Z,50.30
2018-03-03T21:33:05.620Z,49.40
2018-03-03T21:35:34.690Z,51.83
2018-03-03T21:38:03.037Z,34.53
2018-03-03T21:40:32.151Z,48.47
2018-03-03T21:43:00.590Z,45.30
2018-03-03T21:45:29.711Z,50.23
2018-03-03T21:47:58.056Z,48.17
2018-03-03T21:50:26.433Z,37.53
2018-03-03T21:52:54.806Z,43.40
2018-03-03T21:55:23.995Z,47.23
2018-03-03T21:57:52.350Z,51.53
2018-03-03T22:00:20.774Z,36.37
2018-03-03T22:02:49.158Z,46.07
2018-03-03T22:05:18.006Z,47.57
2018-03-03T22:07:47.272Z,45.77
2018-03-03T22:10:15.657Z,45.90
2018-03-03T22:12:44.048Z,45.93
2018-03-03T22:15:12.499Z,43.70
2018-03-03T22:17:41.592Z,43.23
2018-03-03T22:20:10.748Z,45.10
2018-03-03T22:22:39.061Z,44.40
2018-03-03T22:25:07.457Z,45.50
2018-03-03T22:27:36.164Z,29.17
2018-03-03T22:30:04.488Z,44.80
2018-03-03T22:32:33.577Z,41.60
2018-03-03T22:35:01.925Z,43.70
2018-03-03T22:37:30.299Z,43.67
2018-03-03T22:39:58.708Z,43.87
2018-03-03T22:42:27.047Z,45.97
2018-03-03T22:44:55.476Z,39.37
2018-03-03T22:47:23.845Z,43.40
2018-03-03T22:49:53.000Z,41.40
2018-03-03T22:52:21.423Z,43.87
2018-03-03T22:54:49.800Z,43.73
2018-03-03T22:57:18.250Z,41.00
2018-03-03T22:59:46.645Z,44.17
2018-03-03T23:02:14.986Z,41.53
2018-03-03T23:04:43.326Z,43.03
2018-03-03T23:07:11.681Z,38.33
2018-03-03T23:09:40.077Z,41.00
2018-03-03T23:12:08.412Z,39.07
2018-03-03T23:14:36.759Z,44.70
2018-03-03T23:17:05.874Z,41.10
2018-03-03T23:19:34.231Z,41.13
2018-03-03T23:22:02.589Z,39.87
2018-03-03T23:24:31.012Z,39.60
2018-03-03T23:26:59.310Z,39.00
2018-03-03T23:29:27.686Z,40.47
2018-03-03T23:31:56.031Z,40.80
2018-03-03T23:34:25.297Z,37.03
2018-03-03T23:36:53.791Z,40.97
2018-03-03T23:39:22.284Z,38.40
2018-03-03T23:41:51.476Z,37.80
2018-03-03T23:44:19.889Z,38.40
2018-03-03T23:46:48.378Z,38.23
2018-03-03T23:49:17.640Z,39.50
2018-03-03T23:51:46.032Z,43.50
2018-03-03T23:54:14.397Z,38.27
2018-03-03T23:56:42.702Z,38.07
2018-03-03T23:59:11.083Z,39.87
